Latest Coastal Weather Observations for Hindmarsh Island

IDS60701

Issued at 10:01 pm CDT Saturday 23 October 2021 (issued every 10 minutes, with the page automatically refreshed every 10 minutes)

About coastal observations | Map of coastal stations | Coastal observations for SA | Marine services | Other Formats
Station Details ID: 023894 Name: HINDMARSH ISLAND AWS Lat: -35.52 Lon: 138.82 Height: 11.0 m
Data from the previous 72 hours. | See also: Recent months at Hindmarsh Island
Date/Time
CDT
Wind Sea
Height
m
Swell Vis
km
Cloud Weather Temp
°C
Press
MSL
hPa
Rain since
9am
mm
Dir  Spd
kts
Gust
kts
Height
m
Period
s
Dir
23/10:00pm S 18 21 - - - - - - - 13.8 1024.9 0.0
23/09:30pm S 19 23 - - - - - - - 13.7 1024.7 0.0
23/09:00pm S 20 25 - - - - - - - 13.1 1024.3 0.0
23/08:30pm S 18 21 - - - - - - - 13.8 1023.9 0.0
23/08:00pm S 19 22 - - - - - - - 13.7 1023.7 0.0
23/07:30pm S 18 23 - - - - - - - 13.9 1023.2 0.0
23/07:00pm SSW 18 22 - - - - - - - 14.1 1023.0 0.0
23/06:30pm SSW 19 23 - - - - - - - 14.5 1022.7 0.0
23/06:00pm SSW 21 25 - - - - - - - 15.0 1022.4 0.0
23/05:30pm SSW 20 23 - - - - - - - 15.2 1022.3 0.0
23/05:00pm SSW 20 23 - - - - - - - 16.0 1022.2 0.0
23/04:30pm SSW 19 23 - - - - - - - 15.8 1022.1 0.0
23/04:00pm SW 20 24 - - - - - - - 16.5 1022.0 0.0
23/03:30pm SW 20 24 - - - - - - - 16.4 1022.0 0.0
23/03:00pm SW 19 23 - - - - - - - 16.6 1022.1 0.0
23/02:30pm SW 20 24 - - - - - - - 16.8 1022.1 0.0
23/02:00pm SW 19 23 - - - - - - - 16.8 1022.1 0.0
23/01:30pm SW 18 22 - - - - - - - 17.2 1022.1 0.0
23/01:00pm SW 18 22 - - - - - - - 16.3 1022.0 0.0
23/12:30pm SW 17 21 - - - - - - - 16.4 1022.1 0.0
23/12:00pm SW 18 22 - - - - - - - 16.4 1022.0 0.0
23/11:30am SSW 19 23 - - - - - - - 16.6 1022.0 0.0
23/11:00am SW 17 21 - - - - - - - 15.8 1022.0 0.0
23/10:30am SW 16 20 - - - - - - - 15.7 1021.8 0.0
23/10:00am SW 18 23 - - - - - - - 15.7 1021.4 0.0
23/09:30am SW 20 25 - - - - - - - 15.7 1021.1 0.0
23/09:00am SSW 18 24 - - - - - - - 15.5 1020.6 0.0
23/08:30am SW 19 23 - - - - - - - 14.7 1020.4 0.0
23/08:00am SSW 19 23 - - - - - - - 14.6 1019.8 0.0
23/07:30am SW 18 27 - - - - - - - 13.6 1019.4 0.0
23/07:28am SW 17 27 - - - - - - - 13.8 1019.3 0.0
23/07:00am SW 17 22 - - - - - - - 13.6 1019.1 0.0
23/06:30am W 9 13 - - - - - - - 13.0 1018.8 0.0
23/06:00am WSW 11 14 - - - - - - - 12.7 1018.4 0.0
23/05:30am WSW 10 14 - - - - - - - 12.6 1018.0 0.0
23/05:00am W 8 11 - - - - - - - 12.7 1017.7 0.0
23/04:30am W 9 12 - - - - - - - 12.7 1017.8 0.0
23/04:00am WSW 10 13 - - - - - - - 13.0 1017.8 0.0
23/03:30am WSW 9 13 - - - - - - - 13.0 1017.9 0.0
23/03:00am WSW 10 14 - - - - - - - 13.0 1017.7 0.0
23/02:30am WSW 10 14 - - - - - - - 12.9 1017.6 0.0
23/02:00am SW 15 18 - - - - - - - 13.4 1017.5 0.0
23/01:30am SW 13 17 - - - - - - - 13.4 1017.6 0.0
23/01:00am SW 14 17 - - - - - - - 13.5 1017.7 0.0
23/12:30am SW 11 14 - - - - - - - 13.3 1018.0 0.0
23/12:00am SW 16 21 - - - - - - - 13.1 1017.9 0.0
 
Date/Time
CDT
Wind Sea
Height
m
Swell Vis
km
Cloud Weather Temp
°C
Press
MSL
hPa
Rain since
9am
mm
Dir  Spd
kts
Gust
kts
Height
m
Period
s
Dir
22/11:30pm SSW 12 14 - - - - - - - 13.9 1017.9 0.0
22/11:00pm SSW 13 16 - - - - - - - 14.1 1017.9 0.0
22/10:30pm S 12 14 - - - - - - - 14.2 1017.8 0.0
22/10:00pm S 12 15 - - - - - - - 14.4 1017.8 0.0
22/09:30pm S 13 15 - - - - - - - 14.7 1017.4 0.0
22/09:00pm SSE 13 15 - - - - - - - 14.6 1017.0 0.0
22/08:30pm SSE 14 16 - - - - - - - 14.8 1016.5 0.0
22/08:00pm SSE 17 20 - - - - - - - 14.7 1016.1 0.0
22/07:30pm S 18 21 - - - - - - - 15.1 1015.8 0.0
22/07:00pm S 20 23 - - - - - - - 15.4 1015.4 0.0
22/06:30pm SSW 18 23 - - - - - - - 15.9 1015.1 0.0
22/06:00pm SSW 19 22 - - - - - - - 16.6 1014.8 0.0
22/05:30pm S 16 19 - - - - - - - 16.8 1013.9 0.0
22/05:00pm SSW 18 21 - - - - - - - 17.5 1013.5 0.0
22/04:30pm SSW 15 19 - - - - - - - 17.5 1013.4 0.0
22/04:00pm SSW 15 19 - - - - - - - 18.2 1013.4 0.0
22/03:30pm S 11 14 - - - - - - - 18.0 1013.1 0.0
22/03:00pm SSW 14 16 - - - - - - - 18.6 1013.2 0.0
22/02:30pm SSW 15 17 - - - - - - - 19.3 1013.5 0.0
22/02:00pm SW 14 16 - - - - - - - 18.8 1013.5 0.0
22/01:30pm SSW 14 17 - - - - - - - 19.0 1013.6 0.0
22/01:00pm S 12 14 - - - - - - - 19.2 1013.7 0.0
22/12:30pm SSE 9 11 - - - - - - - 19.2 1013.6 0.0
22/12:00pm S 9 11 - - - - - - - 19.0 1014.0 0.0
22/11:30am S 10 11 - - - - - - - 19.0 1014.4 0.0
22/11:00am SSW 8 10 - - - - - - - 18.7 1014.3 0.0
22/10:30am SSW 7 9 - - - - - - - 18.5 1014.4 0.0
22/10:00am W 4 8 - - - - - - - 17.4 1014.4 0.0
22/09:30am S 5 6 - - - - - - - 16.8 1014.5 0.0
22/09:00am NNE 4 6 - - - - - - - 16.0 1014.7 0.0
22/08:30am NE 3 6 - - - - - - - 16.1 1014.7 0.0
22/08:00am N 3 5 - - - - - - - 14.0 1014.7 0.0
22/07:30am NNW 4 5 - - - - - - - 12.9 1014.4 0.0
22/07:00am NNW 4 5 - - - - - - - 12.1 1014.3 0.0
22/06:30am N 5 6 - - - - - - - 11.6 1014.3 0.0
22/06:00am N 6 7 - - - - - - - 11.7 1014.1 0.0
22/05:30am N 5 6 - - - - - - - 12.3 1014.3 0.0
22/05:00am N 5 6 - - - - - - - 12.3 1014.1 0.0
22/04:30am WNW 3 4 - - - - - - - 12.4 1014.2 0.0
22/04:00am WNW 3 4 - - - - - - - 12.4 1014.2 0.0
22/03:30am WNW 5 6 - - - - - - - 12.5 1014.0 0.0
22/03:00am WNW 5 6 - - - - - - - 12.7 1014.3 0.0
22/02:30am SW 6 7 - - - - - - - 13.6 1014.4 0.0
22/02:00am SW 8 10 - - - - - - - 14.1 1014.5 0.0
22/01:30am SSW 8 9 - - - - - - - 14.0 1014.5 0.0
22/01:00am SSW 8 10 - - - - - - - 14.0 1015.1 0.0
22/12:30am SSW 8 10 - - - - - - - 14.3 1015.4 0.0
22/12:00am SSW 8 10 - - - - - - - 14.3 1015.7 0.0
 
Date/Time
CDT
Wind Sea
Height
m
Swell Vis
km
Cloud Weather Temp
°C
Press
MSL
hPa
Rain since
9am
mm
Dir  Spd
kts
Gust
kts
Height
m
Period
s
Dir
21/11:30pm S 9 10 - - - - - - - 14.3 1015.5 0.0
21/11:00pm S 9 11 - - - - - - - 14.4 1015.6 0.0
21/10:30pm S 9 11 - - - - - - - 14.4 1015.6 0.0
21/10:00pm S 10 13 - - - - - - - 14.6 1015.5 0.0
21/09:30pm SSW 14 15 - - - - - - - 14.9 1015.6 0.0
21/09:00pm SSW 9 10 - - - - - - - 14.8 1015.5 0.0
21/08:30pm SSW 7 9 - - - - - - - 14.8 1014.9 0.0
21/08:00pm SSW 7 8 - - - - - - - 15.0 1014.7 0.0
21/07:30pm S 8 9 - - - - - - - 15.4 1014.0 0.0
21/07:00pm S 8 9 - - - - - - - 16.0 1013.6 0.0
21/06:30pm SSW 11 14 - - - - - - - 16.5 1013.2 0.0
21/06:00pm SSW 14 17 - - - - - - - 17.4 1012.7 0.0
21/05:30pm SW 13 16 - - - - - - - 18.2 1012.4 0.0
21/05:00pm WSW 9 15 - - - - - - - 21.0 1011.9 0.0
21/04:30pm SW 13 16 - - - - - - - 20.2 1011.6 0.0
21/04:00pm SSW 13 17 - - - - - - - 19.7 1011.7 0.0
21/03:30pm SSW 14 17 - - - - - - - 19.3 1011.8 0.0
21/03:00pm SSW 14 18 - - - - - - - 20.1 1011.7 0.0
21/02:30pm SW 12 15 - - - - - - - 21.9 1011.8 0.0
21/02:00pm W 10 14 - - - - - - - 22.1 1011.9 0.0
21/01:30pm W 8 13 - - - - - - - 21.7 1012.2 0.0
21/01:00pm WNW 12 17 - - - - - - - 20.7 1012.4 0.0
21/12:30pm NW 12 16 - - - - - - - 21.0 1012.5 0.0
21/12:00pm WNW 13 17 - - - - - - - 20.4 1012.5 0.0
21/11:30am NW 11 16 - - - - - - - 20.5 1012.6 0.0
21/11:00am WNW 9 15 - - - - - - - 20.4 1012.4 0.0
21/10:30am NW 12 17 - - - - - - - 19.2 1012.2 0.0
21/10:00am WNW 11 15 - - - - - - - 17.5 1012.2 0.0
21/09:30am WNW 11 15 - - - - - - - 16.9 1012.3 0.0
21/09:00am WNW 9 13 - - - - - - - 16.9 1012.0 0.0
21/08:30am NW 11 15 - - - - - - - 17.1 1011.8 0.0
21/08:00am NW 14 18 - - - - - - - 16.0 1011.4 0.0
21/07:30am NNW 7 10 - - - - - - - 15.7 1011.6 0.0
21/07:00am NNW 9 13 - - - - - - - 15.5 1011.3 0.0
21/06:30am NW 11 14 - - - - - - - 15.3 1011.0 0.0
21/06:00am NW 14 18 - - - - - - - 15.4 1010.8 0.0
21/05:30am WNW 9 13 - - - - - - - 15.3 1010.9 0.0
21/05:00am WNW 11 14 - - - - - - - 15.4 1010.6 0.0
21/04:30am NW 11 16 - - - - - - - 15.7 1010.4 0.0
21/04:00am NW 12 17 - - - - - - - 16.1 1010.3 0.0
21/03:30am WNW 11 16 - - - - - - - 16.4 1010.1 0.0
21/03:00am WNW 11 17 - - - - - - - 16.7 1009.9 0.0
21/02:30am NW 15 20 - - - - - - - 16.9 1009.8 0.0
21/02:00am NW 8 12 - - - - - - - 16.8 1009.9 0.0
21/01:30am NW 8 11 - - - - - - - 16.8 1010.0 0.0
21/01:00am NW 11 16 - - - - - - - 17.7 1010.0 0.0
21/12:30am WNW 13 19 - - - - - - - 18.3 1010.4 0.0
21/12:00am WNW 12 16 - - - - - - - 18.8 1010.5 0.0
 
Date/Time
CDT
Wind Sea
Height
m
Swell Vis
km
Cloud Weather Temp
°C
Press
MSL
hPa
Rain since
9am
mm
Dir  Spd
kts
Gust
kts
Height
m
Period
s
Dir
20/11:30pm WNW 10 15 - - - - - - - 18.6 1010.3 0.0
20/11:00pm WNW 13 17 - - - - - - - 18.8 1010.2 0.0
20/10:30pm NW 8 12 - - - - - - - 20.4 1009.7 0.0

Other formats

Comma delimited format used in spreadsheet applications
http://www.bom.gov.au/fwo/IDS60701/IDS60701.94677.axf

JavaScript Object Notation format (JSON) in row-major order
http://www.bom.gov.au/fwo/IDS60701/IDS60701.94677.json

Data quality

Most of these data are generated automatically and are frequently updated. Quality checks on data are not normally performed. It is possible for incorrect values to appear. Refer to information at About Latest Weather Observations and please check the disclaimer before using these data.